createdAt,value
2018-12-05T00:02:18.223Z,3.10
2018-12-05T00:04:45.738Z,3.00
2018-12-05T00:07:13.365Z,3.10
2018-12-05T00:09:41.033Z,3.10
2018-12-05T00:12:08.610Z,3.20
2018-12-05T00:14:36.130Z,3.20
2018-12-05T00:17:03.826Z,3.30
2018-12-05T00:19:31.336Z,3.30
2018-12-05T00:21:58.837Z,3.30
2018-12-05T00:24:26.480Z,3.40
2018-12-05T00:26:54.122Z,3.40
2018-12-05T00:29:21.673Z,3.40
2018-12-05T00:31:49.367Z,3.50
2018-12-05T00:34:16.858Z,3.60
2018-12-05T00:36:44.385Z,3.60
2018-12-05T00:39:12.029Z,3.60
2018-12-05T00:41:39.585Z,3.70
2018-12-05T00:44:07.185Z,3.70
2018-12-05T00:46:34.704Z,3.80
2018-12-05T00:49:02.217Z,3.80
2018-12-05T00:51:29.733Z,3.80
2018-12-05T00:53:57.251Z,3.80
2018-12-05T00:56:24.752Z,3.80
2018-12-05T00:58:52.276Z,3.80
2018-12-05T01:01:21.869Z,3.70
2018-12-05T01:03:49.469Z,3.80
2018-12-05T01:06:16.961Z,3.70
2018-12-05T01:08:44.458Z,3.70
2018-12-05T01:11:12.060Z,3.70
2018-12-05T01:13:39.740Z,3.70
2018-12-05T01:16:07.464Z,3.70
2018-12-05T01:18:34.969Z,3.70
2018-12-05T01:21:02.520Z,3.80
2018-12-05T01:23:30.038Z,3.80
2018-12-05T01:25:57.597Z,3.80
2018-12-05T01:28:25.124Z,3.80
2018-12-05T01:30:52.617Z,3.80
2018-12-05T01:33:20.230Z,3.90
2018-12-05T01:35:47.729Z,3.90
2018-12-05T01:38:15.246Z,3.90
2018-12-05T01:40:42.746Z,3.90
2018-12-05T01:43:10.265Z,3.90
2018-12-05T01:45:37.864Z,4.00
2018-12-05T01:48:05.361Z,4.00
2018-12-05T01:50:32.880Z,3.90
2018-12-05T01:53:00.404Z,3.70
2018-12-05T01:55:29.992Z,3.70
2018-12-05T01:57:57.525Z,3.60
2018-12-05T02:00:25.248Z,3.80
2018-12-05T02:02:52.969Z,3.80
2018-12-05T02:05:20.497Z,3.80
2018-12-05T02:07:47.988Z,3.70
2018-12-05T02:10:15.496Z,3.70
2018-12-05T02:12:42.984Z,3.70
2018-12-05T02:15:10.668Z,3.70
2018-12-05T02:17:38.172Z,3.60
2018-12-05T02:20:05.915Z,3.40
2018-12-05T02:22:33.402Z,3.40
2018-12-05T02:25:00.970Z,3.40
2018-12-05T02:27:28.533Z,3.30
2018-12-05T02:29:57.938Z,3.40
2018-12-05T02:32:25.434Z,3.40
2018-12-05T02:34:52.928Z,3.50
2018-12-05T02:37:20.448Z,3.50
2018-12-05T02:39:48.042Z,3.60
2018-12-05T02:42:15.781Z,3.60
2018-12-05T02:44:43.367Z,3.50
2018-12-05T02:47:10.928Z,3.40
2018-12-05T02:49:38.413Z,3.40
2018-12-05T02:52:05.941Z,3.40
2018-12-05T02:54:33.481Z,3.50
2018-12-05T02:57:00.996Z,3.50
2018-12-05T02:59:28.482Z,3.50
2018-12-05T03:01:55.978Z,3.60
2018-12-05T03:04:23.483Z,3.60
2018-12-05T03:06:50.977Z,3.60
2018-12-05T03:09:18.490Z,3.60
2018-12-05T03:11:46.001Z,3.50
2018-12-05T03:14:13.500Z,3.30
2018-12-05T03:16:41.209Z,3.10
2018-12-05T03:19:08.727Z,3.30
2018-12-05T03:21:36.222Z,3.30
2018-12-05T03:24:03.841Z,3.40
2018-12-05T03:26:31.481Z,3.40
2018-12-05T03:28:59.076Z,3.30
2018-12-05T03:31:26.603Z,3.20
2018-12-05T03:33:54.181Z,3.30
2018-12-05T03:36:21.693Z,3.30
2018-12-05T03:38:49.217Z,3.30
2018-12-05T03:41:16.753Z,3.20
2018-12-05T03:43:44.490Z,3.30
2018-12-05T03:46:11.993Z,3.30
2018-12-05T03:48:39.697Z,3.00
2018-12-05T03:51:07.306Z,2.80
2018-12-05T03:53:34.910Z,2.80
2018-12-05T03:56:02.593Z,2.80
2018-12-05T03:58:30.128Z,2.90
2018-12-05T04:00:57.709Z,2.80
2018-12-05T04:03:25.232Z,2.90
2018-12-05T04:05:52.729Z,2.80
2018-12-05T04:08:20.243Z,2.60
2018-12-05T04:10:47.825Z,2.70
2018-12-05T04:13:15.378Z,2.70
2018-12-05T04:15:42.861Z,2.70
2018-12-05T04:18:10.599Z,2.60
2018-12-05T04:20:38.102Z,2.60
2018-12-05T04:23:05.622Z,2.60
2018-12-05T04:25:33.378Z,2.50
2018-12-05T04:28:00.890Z,2.50
2018-12-05T04:30:28.596Z,2.50
2018-12-05T04:32:56.077Z,2.60
2018-12-05T04:35:23.612Z,2.60
2018-12-05T04:37:52.725Z,2.60
2018-12-05T04:40:20.409Z,2.60
2018-12-05T04:42:47.969Z,2.70
2018-12-05T04:45:15.506Z,2.70
2018-12-05T04:47:43.018Z,2.70
2018-12-05T04:50:10.603Z,2.70
2018-12-05T04:52:38.097Z,2.60
2018-12-05T04:55:05.821Z,2.60
2018-12-05T04:57:33.373Z,2.70
2018-12-05T05:00:01.058Z,2.70
2018-12-05T05:02:28.704Z,2.70
2018-12-05T05:04:56.225Z,2.70
2018-12-05T05:07:23.724Z,2.70
2018-12-05T05:09:51.293Z,2.70
2018-12-05T05:12:18.825Z,2.70
2018-12-05T05:14:46.313Z,2.70
2018-12-05T05:17:13.797Z,2.70
2018-12-05T05:19:41.317Z,2.70
2018-12-05T05:22:08.817Z,2.70
2018-12-05T05:24:36.339Z,2.70
2018-12-05T05:27:03.817Z,2.60
2018-12-05T05:29:31.308Z,2.60
2018-12-05T05:31:58.924Z,2.50
2018-12-05T05:34:26.589Z,2.50
2018-12-05T05:36:54.116Z,2.50
2018-12-05T05:39:21.761Z,2.50
2018-12-05T05:41:49.276Z,2.50
2018-12-05T05:44:16.907Z,2.50
2018-12-05T05:46:44.476Z,2.50
2018-12-05T05:49:11.974Z,2.50
2018-12-05T05:51:39.592Z,2.50
2018-12-05T05:54:07.233Z,2.40
2018-12-05T05:56:34.753Z,2.50
2018-12-05T05:59:02.388Z,2.40
2018-12-05T06:01:29.920Z,2.40
2018-12-05T06:03:57.444Z,2.30
2018-12-05T06:06:25.034Z,2.40
2018-12-05T06:08:52.583Z,2.40
2018-12-05T06:11:20.253Z,2.30
2018-12-05T06:13:47.805Z,2.40
2018-12-05T06:16:15.384Z,2.40
2018-12-05T06:18:42.954Z,2.40
2018-12-05T06:21:10.481Z,2.40
2018-12-05T06:23:38.117Z,2.40
2018-12-05T06:26:05.790Z,2.40
2018-12-05T06:28:33.321Z,2.50
2018-12-05T06:31:00.837Z,2.50
2018-12-05T06:33:28.418Z,2.40
2018-12-05T06:35:55.980Z,2.40
2018-12-05T06:38:23.600Z,2.20
2018-12-05T06:40:51.088Z,2.20
2018-12-05T06:43:18.582Z,2.00
2018-12-05T06:45:46.092Z,1.90
2018-12-05T06:48:13.686Z,1.90
2018-12-05T06:50:41.201Z,1.90
2018-12-05T06:53:08.706Z,2.00
2018-12-05T06:55:39.217Z,2.00
2018-12-05T06:58:05.709Z,2.00
2018-12-05T07:00:33.231Z,1.90
2018-12-05T07:03:00.734Z,1.90
2018-12-05T07:05:28.263Z,2.00
2018-12-05T07:07:55.801Z,2.00
2018-12-05T07:10:23.316Z,1.90
2018-12-05T07:12:50.827Z,2.00
2018-12-05T07:15:18.344Z,2.00
2018-12-05T07:17:45.845Z,2.10
2018-12-05T07:20:13.368Z,2.10
2018-12-05T07:22:41.029Z,2.20
2018-12-05T07:25:08.577Z,2.20
2018-12-05T07:27:36.110Z,2.20
2018-12-05T07:30:03.930Z,2.10
2018-12-05T07:32:31.429Z,2.20
2018-12-05T07:34:59.102Z,2.20
2018-12-05T07:37:26.594Z,2.20
2018-12-05T07:39:54.303Z,2.30
2018-12-05T07:42:21.777Z,2.30
2018-12-05T07:44:49.286Z,2.30
2018-12-05T07:47:16.781Z,2.30
2018-12-05T07:49:44.333Z,2.10
2018-12-05T07:52:11.908Z,2.20
2018-12-05T07:54:39.400Z,2.20
2018-12-05T07:57:06.918Z,2.20
2018-12-05T07:59:34.433Z,2.40
2018-12-05T08:02:01.946Z,2.40
2018-12-05T08:04:29.445Z,2.30
2018-12-05T08:06:56.960Z,2.30
2018-12-05T08:09:24.454Z,2.30
2018-12-05T08:11:52.064Z,2.40
2018-12-05T08:14:19.623Z,2.40
2018-12-05T08:16:47.142Z,2.50
2018-12-05T08:19:14.629Z,2.50
2018-12-05T08:21:42.186Z,2.60
2018-12-05T08:24:09.859Z,2.60
2018-12-05T08:26:37.520Z,2.60
2018-12-05T08:29:05.117Z,2.70
2018-12-05T08:31:32.624Z,2.70
2018-12-05T08:34:00.144Z,2.70
2018-12-05T08:36:27.644Z,2.80
2018-12-05T08:38:55.224Z,2.80
2018-12-05T08:41:22.897Z,2.90
2018-12-05T08:43:50.400Z,2.90
2018-12-05T08:46:17.897Z,2.90
2018-12-05T08:48:45.544Z,3.00
2018-12-05T08:51:13.237Z,3.00
2018-12-05T08:53:40.770Z,3.10
2018-12-05T08:56:08.404Z,3.20
2018-12-05T08:58:36.014Z,3.20
2018-12-05T09:01:03.635Z,3.30
2018-12-05T09:03:31.136Z,3.40
2018-12-05T09:05:58.725Z,3.50
2018-12-05T09:08:26.238Z,3.60
2018-12-05T09:10:53.872Z,3.70
2018-12-05T09:13:21.369Z,3.80
2018-12-05T09:15:49.068Z,3.70
2018-12-05T09:18:16.603Z,3.80
2018-12-05T09:20:44.118Z,3.90
2018-12-05T09:23:11.801Z,3.90
2018-12-05T09:25:39.297Z,4.10
2018-12-05T09:28:06.884Z,4.10
2018-12-05T09:30:34.664Z,4.00
2018-12-05T09:33:02.313Z,4.10
2018-12-05T09:35:29.875Z,4.10
2018-12-05T09:37:57.434Z,4.20
2018-12-05T09:40:24.929Z,4.30
2018-12-05T09:42:52.462Z,4.40
2018-12-05T09:45:20.022Z,4.50
2018-12-05T09:47:48.013Z,4.60
2018-12-05T09:50:15.534Z,4.60
2018-12-05T09:52:43.029Z,4.50
2018-12-05T09:55:10.549Z,4.60
2018-12-05T09:57:38.094Z,4.70
2018-12-05T10:00:07.888Z,4.80
2018-12-05T10:02:35.425Z,4.90
2018-12-05T10:05:03.198Z,5.00
2018-12-05T10:07:30.807Z,5.10
2018-12-05T10:09:58.390Z,5.20
2018-12-05T10:12:25.897Z,5.20
2018-12-05T10:14:53.410Z,5.30
2018-12-05T10:17:20.938Z,5.30
2018-12-05T10:19:48.565Z,5.40
2018-12-05T10:22:16.138Z,5.50
2018-12-05T10:24:43.761Z,5.50
2018-12-05T10:27:11.298Z,5.60
2018-12-05T10:29:38.828Z,5.70
2018-12-05T10:32:06.331Z,5.80
2018-12-05T10:34:33.952Z,5.90
2018-12-05T10:37:01.454Z,6.00
2018-12-05T10:39:29.030Z,6.00
2018-12-05T10:41:56.692Z,6.10
2018-12-05T10:44:24.199Z,6.10
2018-12-05T10:46:51.700Z,6.10
2018-12-05T10:49:19.198Z,6.10
2018-12-05T10:51:46.750Z,6.20
2018-12-05T10:54:14.511Z,6.20
2018-12-05T10:56:42.091Z,6.20
2018-12-05T10:59:09.589Z,6.30
2018-12-05T11:01:42.837Z,6.30
2018-12-05T11:04:18.153Z,6.40
2018-12-05T11:06:51.533Z,6.40
2018-12-05T11:09:24.792Z,6.40
2018-12-05T11:15:01.685Z,6.40
2018-12-05T11:17:35.007Z,6.50
2018-12-05T11:20:08.582Z,6.50
2018-12-05T11:22:41.753Z,6.50
2018-12-05T11:25:10.557Z,6.50
2018-12-05T11:27:38.072Z,6.50
2018-12-05T11:30:06.805Z,6.60
2018-12-05T11:32:34.324Z,6.60
2018-12-05T11:35:01.849Z,6.70
2018-12-05T11:37:29.537Z,6.70
2018-12-05T11:39:57.052Z,6.80
2018-12-05T11:42:24.563Z,6.80
2018-12-05T11:44:52.303Z,6.80
2018-12-05T11:47:19.903Z,6.90
2018-12-05T11:49:47.438Z,6.90
2018-12-05T11:52:15.023Z,6.90
2018-12-05T11:54:42.590Z,6.90
2018-12-05T11:57:10.127Z,6.90
2018-12-05T11:59:37.729Z,6.90
2018-12-05T12:02:05.430Z,6.90
2018-12-05T12:04:33.021Z,6.90
2018-12-05T12:07:00.650Z,6.90
2018-12-05T12:09:28.229Z,6.90
2018-12-05T12:11:55.862Z,6.90
2018-12-05T12:14:23.368Z,6.90
2018-12-05T12:16:50.969Z,6.90
2018-12-05T12:19:18.476Z,6.90
2018-12-05T12:21:46.009Z,6.90
2018-12-05T12:24:13.691Z,6.90
2018-12-05T12:26:41.214Z,7.00
2018-12-05T12:29:08.936Z,7.00
2018-12-05T12:31:36.434Z,7.00
2018-12-05T12:34:04.046Z,7.00
2018-12-05T12:36:31.558Z,6.90
2018-12-05T12:38:59.069Z,7.00
2018-12-05T12:41:26.764Z,7.00
2018-12-05T12:43:54.339Z,7.00
2018-12-05T12:46:21.844Z,7.00
2018-12-05T12:48:49.350Z,7.00
2018-12-05T12:51:16.909Z,7.00
2018-12-05T12:53:44.393Z,7.00
2018-12-05T12:56:12.030Z,7.00
2018-12-05T12:58:39.525Z,7.00
2018-12-05T13:01:07.046Z,6.90
2018-12-05T13:03:34.640Z,6.90
2018-12-05T13:06:02.185Z,6.90
2018-12-05T13:08:29.764Z,6.90
2018-12-05T13:10:57.379Z,6.90
2018-12-05T13:13:25.041Z,6.90
2018-12-05T13:15:52.732Z,6.90
2018-12-05T13:18:20.258Z,6.90
2018-12-05T13:20:47.922Z,6.90
2018-12-05T13:23:15.422Z,6.90
2018-12-05T13:25:42.969Z,7.00
2018-12-05T13:28:10.543Z,7.00
2018-12-05T13:30:38.160Z,7.00
2018-12-05T13:33:05.781Z,7.10
2018-12-05T13:35:33.381Z,7.10
2018-12-05T13:38:00.886Z,7.10
2018-12-05T13:40:28.425Z,7.10
2018-12-05T13:42:55.986Z,7.10
2018-12-05T13:45:23.613Z,7.10
2018-12-05T13:47:51.174Z,7.10
2018-12-05T13:50:18.693Z,7.10
2018-12-05T13:52:46.205Z,7.10
2018-12-05T13:55:13.805Z,7.10
2018-12-05T13:57:41.353Z,7.00
2018-12-05T14:00:09.325Z,7.10
2018-12-05T14:02:36.948Z,7.10
2018-12-05T14:05:04.594Z,7.10
2018-12-05T14:07:32.195Z,7.10
2018-12-05T14:09:59.901Z,7.10
2018-12-05T14:12:27.687Z,7.10
2018-12-05T14:14:55.411Z,7.00
2018-12-05T14:17:23.104Z,7.00
2018-12-05T14:19:50.608Z,7.00
2018-12-05T14:22:18.125Z,7.00
2018-12-05T14:24:45.720Z,7.00
2018-12-05T14:27:13.278Z,7.00
2018-12-05T14:29:40.808Z,7.00
2018-12-05T14:32:08.324Z,7.00
2018-12-05T14:34:35.841Z,7.00
2018-12-05T14:37:03.339Z,7.00
2018-12-05T14:39:30.851Z,7.00
2018-12-05T14:41:58.381Z,6.90
2018-12-05T14:44:25.941Z,6.90
2018-12-05T14:46:53.445Z,6.90
2018-12-05T14:49:20.991Z,6.90
2018-12-05T14:51:48.626Z,6.90
2018-12-05T14:54:16.176Z,6.90
2018-12-05T14:56:43.704Z,6.80
2018-12-05T14:59:11.426Z,6.80
2018-12-05T15:01:38.964Z,6.80
2018-12-05T15:04:06.515Z,6.80
2018-12-05T15:06:34.234Z,6.80
2018-12-05T15:09:01.754Z,6.80
2018-12-05T15:11:29.291Z,6.80
2018-12-05T15:13:56.798Z,6.80
2018-12-05T15:16:24.613Z,6.80
2018-12-05T15:18:52.086Z,6.80
2018-12-05T15:21:19.629Z,6.80
2018-12-05T15:23:47.290Z,6.70
2018-12-05T15:26:14.837Z,6.70
2018-12-05T15:28:42.457Z,6.70
2018-12-05T15:31:10.002Z,6.70
2018-12-05T15:33:37.618Z,6.70
2018-12-05T15:36:05.160Z,6.60
2018-12-05T15:38:32.684Z,6.60
2018-12-05T15:41:00.226Z,6.60
2018-12-05T15:43:27.871Z,6.60
2018-12-05T15:45:55.396Z,6.50
2018-12-05T15:48:23.134Z,6.50
2018-12-05T15:50:50.665Z,6.50
2018-12-05T15:53:18.304Z,6.50
2018-12-05T15:55:45.825Z,6.40
2018-12-05T15:58:13.354Z,6.50
2018-12-05T16:00:40.865Z,6.50
2018-12-05T16:03:08.389Z,6.50
2018-12-05T16:05:35.918Z,6.50
2018-12-05T16:08:03.658Z,6.50
2018-12-05T16:10:31.166Z,6.60
2018-12-05T16:12:58.794Z,6.60
2018-12-05T16:15:26.331Z,6.60
2018-12-05T16:17:53.922Z,6.70
2018-12-05T16:20:21.551Z,6.70
2018-12-05T16:22:49.056Z,6.70
2018-12-05T16:25:16.695Z,6.70
2018-12-05T16:27:44.238Z,6.70
2018-12-05T16:30:11.935Z,6.70
2018-12-05T16:32:39.456Z,6.70
2018-12-05T16:35:07.165Z,6.70
2018-12-05T16:37:34.768Z,6.60
2018-12-05T16:40:02.374Z,6.70
2018-12-05T16:42:29.913Z,6.60
2018-12-05T16:44:57.548Z,6.50
2018-12-05T16:47:25.057Z,6.50
2018-12-05T16:49:52.673Z,6.60
2018-12-05T16:52:20.173Z,6.60
2018-12-05T16:54:48.002Z,6.60
2018-12-05T16:57:15.553Z,6.70
2018-12-05T16:59:43.037Z,6.70
2018-12-05T17:02:10.625Z,6.70
2018-12-05T17:04:38.146Z,6.80
2018-12-05T17:07:05.649Z,6.80
2018-12-05T17:09:33.189Z,6.80
2018-12-05T17:12:00.821Z,6.80
2018-12-05T17:14:28.357Z,6.80
2018-12-05T17:16:55.922Z,6.80
2018-12-05T17:19:23.498Z,6.80
2018-12-05T17:21:51.088Z,6.90
2018-12-05T17:24:18.641Z,6.90
2018-12-05T17:26:46.176Z,6.90
2018-12-05T17:29:13.707Z,6.90
2018-12-05T17:31:41.205Z,6.90
2018-12-05T17:34:08.824Z,6.90
2018-12-05T17:36:36.331Z,6.90
2018-12-05T17:39:06.977Z,6.90
2018-12-05T17:41:34.511Z,6.90
2018-12-05T17:44:02.021Z,6.90
2018-12-05T17:46:29.548Z,6.90
2018-12-05T17:48:57.048Z,6.80
2018-12-05T17:51:24.601Z,6.90
2018-12-05T17:53:52.081Z,6.90
2018-12-05T17:56:19.719Z,6.90
2018-12-05T17:58:47.227Z,6.80
2018-12-05T18:01:14.742Z,6.90
2018-12-05T18:03:42.246Z,6.80
2018-12-05T18:06:09.789Z,6.80
2018-12-05T18:08:37.411Z,6.80
2018-12-05T18:11:04.910Z,6.90
2018-12-05T18:13:32.425Z,6.80
2018-12-05T18:15:59.985Z,6.80
2018-12-05T18:18:27.485Z,6.80
2018-12-05T18:20:55.218Z,6.80
2018-12-05T18:23:22.717Z,6.80
2018-12-05T18:25:50.244Z,6.90
2018-12-05T18:28:17.879Z,6.90
2018-12-05T18:30:45.373Z,6.90
2018-12-05T18:33:12.901Z,6.90
2018-12-05T18:35:40.430Z,7.00
2018-12-05T18:38:07.933Z,7.00
2018-12-05T18:40:35.495Z,7.00
2018-12-05T18:43:03.027Z,7.00
2018-12-05T18:45:31.383Z,7.00
2018-12-05T18:47:59.255Z,7.10
2018-12-05T18:50:26.744Z,7.10
2018-12-05T18:52:54.323Z,7.10
2018-12-05T18:55:21.850Z,7.10
2018-12-05T18:57:49.404Z,7.10
2018-12-05T19:00:16.905Z,7.10
2018-12-05T19:02:44.484Z,7.10
2018-12-05T19:05:12.105Z,7.10
2018-12-05T19:07:39.637Z,7.10
2018-12-05T19:10:07.130Z,7.00
2018-12-05T19:12:34.686Z,7.00
2018-12-05T19:15:02.301Z,6.90
2018-12-05T19:17:29.817Z,6.90
2018-12-05T19:19:57.353Z,6.80
2018-12-05T19:22:24.854Z,6.80
2018-12-05T19:24:52.436Z,6.80
2018-12-05T19:27:20.010Z,6.80
2018-12-05T19:29:47.769Z,6.80
2018-12-05T19:32:15.266Z,6.80
2018-12-05T19:34:42.817Z,6.80
2018-12-05T19:37:10.353Z,6.80
2018-12-05T19:39:38.044Z,6.80
2018-12-05T19:42:05.550Z,6.80
2018-12-05T19:44:33.240Z,6.80
2018-12-05T19:47:00.882Z,6.80
2018-12-05T19:49:28.476Z,6.90
2018-12-05T19:51:55.978Z,6.90
2018-12-05T19:54:23.522Z,6.90
2018-12-05T19:56:51.119Z,6.90
2018-12-05T19:59:18.642Z,6.90
2018-12-05T20:01:46.238Z,6.90
2018-12-05T20:04:13.935Z,6.90
2018-12-05T20:06:41.455Z,6.90
2018-12-05T20:09:08.975Z,6.90
2018-12-05T20:11:36.510Z,6.90
2018-12-05T20:14:04.722Z,6.90
2018-12-05T20:16:32.257Z,6.90
2018-12-05T20:18:59.793Z,6.90
2018-12-05T20:21:27.334Z,6.90
2018-12-05T20:23:54.842Z,6.80
2018-12-05T20:26:22.372Z,6.80
2018-12-05T20:28:49.893Z,6.80
2018-12-05T20:31:17.526Z,6.80
2018-12-05T20:33:45.022Z,6.80
2018-12-05T20:36:12.526Z,6.80
2018-12-05T20:38:40.058Z,6.80
2018-12-05T20:41:07.557Z,6.90
2018-12-05T20:43:35.085Z,6.90
2018-12-05T20:46:02.706Z,6.90
2018-12-05T20:48:30.263Z,6.90
2018-12-05T20:50:57.773Z,6.90
2018-12-05T20:53:25.298Z,6.90
2018-12-05T20:55:52.941Z,7.00
2018-12-05T20:58:20.597Z,7.00
2018-12-05T21:00:48.157Z,7.00
2018-12-05T21:03:15.647Z,7.00
2018-12-05T21:05:43.189Z,7.00
2018-12-05T21:08:10.705Z,7.00
2018-12-05T21:10:38.338Z,7.10
2018-12-05T21:13:05.958Z,7.10
2018-12-05T21:15:33.575Z,7.10
2018-12-05T21:18:01.078Z,7.10
2018-12-05T21:20:28.745Z,7.10
2018-12-05T21:22:56.256Z,7.10
2018-12-05T21:25:23.869Z,7.20
2018-12-05T21:27:51.456Z,7.20
2018-12-05T21:30:19.080Z,7.20
2018-12-05T21:32:46.596Z,7.20
2018-12-05T21:35:14.184Z,7.20
2018-12-05T21:37:41.730Z,7.20
2018-12-05T21:40:09.248Z,7.30
2018-12-05T21:42:36.757Z,7.30
2018-12-05T21:45:04.475Z,7.30
2018-12-05T21:47:32.088Z,7.40
2018-12-05T21:49:59.595Z,7.40
2018-12-05T21:52:27.205Z,7.40
2018-12-05T21:54:54.731Z,7.50
2018-12-05T21:57:22.253Z,7.50
2018-12-05T21:59:49.873Z,7.50
2018-12-05T22:02:17.372Z,7.40
2018-12-05T22:04:45.029Z,7.40
2018-12-05T22:07:12.566Z,7.40
2018-12-05T22:09:40.060Z,7.40
2018-12-05T22:12:07.579Z,7.40
2018-12-05T22:14:35.121Z,7.40
2018-12-05T22:17:02.600Z,7.50
2018-12-05T22:19:30.238Z,7.60
2018-12-05T22:21:57.819Z,7.60
2018-12-05T22:24:25.362Z,7.70
2018-12-05T22:26:52.950Z,7.80
2018-12-05T22:29:20.473Z,7.80
2018-12-05T22:31:48.002Z,7.90
2018-12-05T22:34:15.497Z,7.90
2018-12-05T22:36:43.023Z,7.90
2018-12-05T22:39:10.511Z,7.90
2018-12-05T22:41:38.026Z,7.90
2018-12-05T22:44:05.520Z,7.90
2018-12-05T22:46:33.052Z,7.80
2018-12-05T22:49:00.541Z,7.90
2018-12-05T22:51:28.141Z,7.90
2018-12-05T22:53:55.666Z,7.90
2018-12-05T22:56:23.217Z,7.90
2018-12-05T22:58:50.722Z,7.90
2018-12-05T23:01:18.360Z,8.00
2018-12-05T23:03:45.886Z,8.00
2018-12-05T23:06:13.377Z,8.00
2018-12-05T23:08:41.005Z,8.00
2018-12-05T23:11:08.513Z,8.00
2018-12-05T23:13:37.507Z,8.00
2018-12-05T23:16:05.501Z,8.00
2018-12-05T23:18:33.051Z,8.00
2018-12-05T23:21:00.639Z,8.00
2018-12-05T23:23:28.245Z,8.00
2018-12-05T23:25:55.778Z,7.90
2018-12-05T23:28:23.281Z,7.90
2018-12-05T23:30:50.803Z,7.90
2018-12-05T23:33:18.321Z,7.90
2018-12-05T23:35:45.836Z,7.90
2018-12-05T23:38:13.349Z,7.90
2018-12-05T23:40:40.857Z,7.90
2018-12-05T23:43:08.361Z,7.90
2018-12-05T23:45:35.930Z,7.90
2018-12-05T23:48:03.445Z,7.90
2018-12-05T23:50:30.961Z,7.90
2018-12-05T23:52:58.466Z,7.90
2018-12-05T23:55:25.970Z,7.90
2018-12-05T23:57:53.497Z,7.90
